Главная страница
METAR-TAF:

METAR-TAF

Аэропорты :

Ставрополь, Россия

широта: 45-20N, долгота: 042-00E, высота над уровнем моря: 453 м

Текущие метеонаблюдения

Эта сводка был подготовлена 43 минут назад, в 02:00 UTC
Ветер 6 Узел от северо-западный
Температура 22°C
Влажность 33%
Давление 1016 hPa
Видимость 10 км и более
Нет облачности ниже 1500 м, и нет кучево-дождевой облачности

METAR: URMT 210200Z 32003MPS CAVOK 22/05 Q1016 R25/010070 NOSIG RMK QFE723

Время: 05:43 (02:43 UTC)

Прогноз

Эта сводка был подготовлена 43 минут назад, в 02:00 UTC
Прогноз действительный с 21-го 03 UTC до 21-го 12 UTC
Ветер 6 Узел от северно-северо-западный с порывами до 16 Узел
Видимость 10 км и более
Отдельные облака на высоте 2000 фута

TAF: URMT 210200Z 2103/2112 34003G08MPS 9999 SCT020

Метеонаблюдения и прогнозы для более 4000 аэропортов (сводки METAR и TAF).

Имеющиеся станции представлены на карте желтыми и красными точками.

Чтобы увидеть название станции, наведите на нее мышь.

Затем щелкните, чтобы увидеть метеонаблюдения и метеопрогнозы.

Управление картой: чтобы увеличить масштаб, щелкните зеленые кнопки с черным крестиком; чтобы уменьшить масштаб, щелкните зеленую кнопку с тире; для просмотра соседних карт щелкайте зеленые стрелки.


METAR-TAF: